Time;durP1;ratioP1;P1;durP2;ratioP2;P2;SDS_P1;SDS_P2;PMS_P1;PMS_P2;Temp;Humidity;BMP_temperature;BMP_pressure;BME280_temperature;BME280_humidity;BME280_pressure;Samples;Min_cycle;Max_cycle;Signal;HPM_P1;HPM_P2
2023/01/19 00:13:48;;;;;;;41.40;23.70;;;;;;;3.95;68.74;97690.61;233782;1202;138655;-64
2023/01/19 00:19:29;;;;;;;;;;;;;;;;;;;;;
2023/01/19 00:25:12;;;;;;;;;;;;;;;;;;;;;
2023/01/19 00:30:57;;;;;;;37.30;22.10;;;;;;;4.01;68.85;97700.45;235038;1192;138805;-66
2023/01/19 00:36:32;;;;;;;;;;;;;;;;;;;;;
2023/01/19 00:47:38;;;;;;;34.70;22.30;;;;;;;3.98;68.65;97704.45;235077;1192;139001;-66
2023/01/19 00:53:32;;;;;;;;;;;;;;;;;;;;;
2023/01/19 01:03:46;;;;;;;;;;;;;;;;;;;;;
2023/01/19 01:09:52;;;;;;;;;;;;;;;;;;;;;
2023/01/19 01:16:18;;;;;;;38.80;24.40;;;;;;;4.05;68.75;97703.23;234377;1199;139766;-66
2023/01/19 01:21:55;;;;;;;;;;;;;;;;;;;;;
2023/01/19 01:35:26;;;;;;;39.10;24.50;;;;;;;4.11;69.02;97678.48;234614;1192;139575;-66
2023/01/19 01:49:22;;;;;;;38.10;22.70;;;;;;;4.07;69.06;97670.27;234804;1193;138652;-66
2023/01/19 02:15:26;;;;;;;43.80;26.20;;;;;;;4.08;69.08;97661.63;233724;1203;138988;-66
2023/01/19 02:21:51;;;;;;;39.90;27.00;;;;;;;4.13;69.24;97658.88;233535;1203;139773;-65
2023/01/19 02:51:02;;;;;;;;;;;;;;;;;;;;;
2023/01/19 03:18:46;;;;;;;;;;;;;;;;;;;;;
2023/01/19 03:32:14;;;;;;;;;;;;;;;;;;;;;
2023/01/19 04:00:23;;;;;;;40.90;25.70;;;;;;;4.28;69.08;97688.89;233109;1195;139041;-67
2023/01/19 04:51:15;;;;;;;39.20;26.10;;;;;;;4.55;69.12;97678.69;231914;1212;139292;-68
2023/01/19 05:12:43;;;;;;;;;;;;;;;;;;;;;
2023/01/19 05:20:05;;;;;;;94.50;62.90;;;;;;;4.81;68.92;97720.38;234496;1195;138961;-66
2023/01/19 05:27:09;;;;;;;;;;;;;;;;;;;;;
2023/01/19 05:34:38;;;;;;;;;;;;;;;;;;;;;
2023/01/19 05:44:05;;;;;;;;;;;;;;;;;;;;;
2023/01/19 05:50:11;;;;;;;31.60;21.80;;;;;;;4.96;68.67;97764.78;234645;1195;139846;-70
2023/01/19 06:03:06;;;;;;;;;;;;;;;;;;;;;
2023/01/19 06:10:54;;;;;;;42.70;25.50;;;;;;;4.99;67.78;97776.75;234041;1198;138819;-66
2023/01/19 06:15:49;;;;;;;94.80;56.40;;;;;;;4.90;68.00;97789.55;234402;1197;139273;-67
2023/01/19 06:21:54;;;;;;;41.40;24.90;;;;;;;4.83;67.48;97780.55;234463;1196;139026;-68
2023/01/19 06:27:52;;;;;;;38.50;23.70;;;;;;;4.59;67.64;97780.33;234911;1195;138922;-68
2023/01/19 06:33:31;;;;;;;;;;;;;;;;;;;;;
2023/01/19 06:39:46;;;;;;;;;;;;;;;;;;;;;
2023/01/19 06:45:53;;;;;;;;;;;;;;;;;;;;;
2023/01/19 06:51:40;;;;;;;31.80;19.40;;;;;;;4.13;69.19;97850.51;234849;1193;142425;-66
2023/01/19 06:56:49;;;;;;;31.10;19.90;;;;;;;4.12;69.11;97845.13;234789;1194;139637;-68
2023/01/19 07:03:12;;;;;;;31.40;19.90;;;;;;;4.17;69.24;97851.02;234859;1195;139689;-69
2023/01/19 07:09:05;;;;;;;30.90;19.30;;;;;;;4.19;69.51;97865.45;234816;1195;139215;-66
2023/01/19 07:15:02;;;;;;;33.70;20.70;;;;;;;4.15;69.46;97864.62;234790;1193;139581;-65
2023/01/19 07:20:52;;;;;;;29.30;18.70;;;;;;;4.12;69.35;97867.97;234823;1193;139027;-64
2023/01/19 07:26:20;;;;;;;31.00;18.60;;;;;;;4.06;69.61;97874.96;234652;1193;139407;-63
2023/01/19 07:32:25;;;;;;;29.30;18.50;;;;;;;4.03;69.67;97869.85;234814;1193;138651;-67
2023/01/19 07:38:27;;;;;;;36.10;18.00;;;;;;;3.99;69.93;97870.92;234728;1195;138859;-66
2023/01/19 07:44:18;;;;;;;26.20;17.20;;;;;;;4.00;69.87;97857.88;234753;1196;139007;-67
2023/01/19 07:50:13;;;;;;;28.80;17.80;;;;;;;4.01;70.19;97853.30;234692;1195;138731;-66
2023/01/19 07:56:04;;;;;;;28.30;17.50;;;;;;;4.05;70.30;97846.06;234774;1198;140378;-64
2023/01/19 08:02:50;;;;;;;27.90;18.50;;;;;;;4.12;70.01;97842.00;234323;1195;139427;-63
2023/01/19 08:42:59;;;;;;;40.50;23.10;;;;;;;4.12;69.93;97890.57;231270;1211;138963;-64
2023/01/19 08:54:23;;;;;;;;;;;;;;;;;;;;;
2023/01/19 09:00:39;;;;;;;30.70;20.60;;;;;;;4.24;70.16;97882.05;233722;1202;140563;-68
2023/01/19 09:07:03;;;;;;;34.90;21.70;;;;;;;4.33;70.20;97879.43;234009;1198;140560;-69
2023/01/19 09:13:26;;;;;;;38.00;22.00;;;;;;;4.38;70.06;97857.41;234328;1199;139008;-66
2023/01/19 09:20:03;;;;;;;;;;;;;;;;;;;;;
2023/01/19 09:26:32;;;;;;;;;;;;;;;;;;;;;
2023/01/19 09:32:24;;;;;;;39.40;24.10;;;;;;;4.40;69.99;97882.91;234206;1199;140981;-65
2023/01/19 09:37:59;;;;;;;34.10;22.90;;;;;;;4.43;70.25;97880.61;234021;1198;138574;-67
2023/01/19 09:44:15;;;;;;;35.00;21.80;;;;;;;4.43;70.26;97877.30;234313;1199;138761;-68
2023/01/19 09:50:32;;;;;;;35.00;23.10;;;;;;;4.40;70.33;97879.39;234310;1197;139161;-64
2023/01/19 10:04:43;;;;;;;;;;;;;;;;;;;;;
2023/01/19 10:11:13;;;;;;;;;;;;;;;;;;;;;
2023/01/19 10:18:06;;;;;;;37.00;24.30;;;;;;;4.56;69.93;97864.10;232927;1203;138466;-64
2023/01/19 10:32:06;;;;;;;30.10;18.70;;;;;;;4.50;69.72;97837.22;232108;1210;139066;-64
2023/01/19 10:38:26;;;;;;;56.60;37.30;;;;;;;4.52;71.75;97832.19;233221;1203;139136;-65
2023/01/19 10:45:09;;;;;;;;;;;;;;;;;;;;;
2023/01/19 10:51:44;;;;;;;26.00;19.00;;;;;;;5.11;69.19;97826.46;233864;1199;140358;-68
2023/01/19 10:57:39;;;;;;;34.80;22.60;;;;;;;5.02;69.12;97821.02;233725;1200;139488;-65
2023/01/19 11:04:29;;;;;;;;;;;;;;;;;;;;;
2023/01/19 12:06:34;;;;;;;;;;;;;;;;;;;;;
2023/01/19 12:12:02;;;;;;;;;;;;;;;;;;;;;
2023/01/19 12:17:53;;;;;;;37.60;25.50;;;;;;;5.15;69.63;97771.72;234192;1197;139248;-66
2023/01/19 12:24:07;;;;;;;;;;;;;;;;;;;;;
2023/01/19 12:30:16;;;;;;;41.90;26.20;;;;;;;5.10;69.38;97792.07;234173;1200;139122;-65
2023/01/19 12:36:57;;;;;;;46.20;28.10;;;;;;;5.07;68.99;97796.11;234092;1198;138962;-65
2023/01/19 12:42:54;;;;;;;45.90;28.20;;;;;;;4.97;69.05;97806.34;234147;1200;138875;-66
2023/01/19 12:49:12;;;;;;;42.00;28.70;;;;;;;4.95;69.32;97808.59;234223;1198;139132;-64
2023/01/19 12:55:21;;;;;;;50.60;33.90;;;;;;;5.00;69.35;97813.23;234219;1201;139597;-65
2023/01/19 13:01:41;;;;;;;;;;;;;;;;;;;;;
2023/01/19 13:09:28;;;;;;;48.80;31.90;;;;;;;4.98;68.78;97813.69;234009;1202;138994;-65
2023/01/19 13:15:40;;;;;;;;;;;;;;;;;;;;;
2023/01/19 13:27:40;;;;;;;;;;;;;;;;;;;;;
2023/01/19 13:34:33;;;;;;;46.90;31.50;;;;;;;4.70;69.00;97824.29;233854;1202;138953;-64
2023/01/19 14:07:35;;;;;;;38.60;25.60;;;;;;;4.63;68.93;97869.86;232918;1206;648813;-66
2023/01/19 14:14:19;;;;;;;39.10;25.00;;;;;;;4.71;68.54;97881.14;235248;1192;139002;-66
2023/01/19 14:20:56;;;;;;;;;;;;;;;;;;;;;
2023/01/19 14:27:13;;;;;;;38.60;24.60;;;;;;;4.61;68.70;97888.10;234808;1193;139049;-65
2023/01/19 14:34:15;;;;;;;35.50;22.20;;;;;;;4.56;68.18;97892.91;234764;1193;139247;-65
2023/01/19 14:58:56;;;;;;;;;;;;;;;;;;;;;
2023/01/19 15:04:29;;;;;;;29.70;19.50;;;;;;;4.34;68.84;97905.01;234676;1195;139360;-68
2023/01/19 15:10:15;;;;;;;27.40;18.80;;;;;;;4.37;68.70;97909.94;234692;1196;139509;-66
2023/01/19 15:15:38;;;;;;;29.20;18.10;;;;;;;4.40;68.77;97919.27;234702;1196;140701;-67
2023/01/19 15:22:17;;;;;;;26.00;17.40;;;;;;;4.36;68.93;97927.90;234638;1196;139737;-66
2023/01/19 15:28:07;;;;;;;;;;;;;;;;;;;;;
2023/01/19 15:33:56;;;;;;;26.80;17.70;;;;;;;4.27;68.82;97936.97;234480;1193;138501;-65
2023/01/19 15:39:32;;;;;;;;;;;;;;;;;;;;;
2023/01/19 15:59:58;;;;;;;;;;;;;;;;;;;;;
2023/01/19 16:13:55;;;;;;;23.50;16.80;;;;;;;4.26;69.08;97961.11;234055;1195;139608;-66
2023/01/19 16:20:12;;;;;;;23.20;15.80;;;;;;;4.26;68.82;97959.33;234312;1196;139121;-64
2023/01/19 16:26:45;;;;;;;205.00;120.40;;;;;;;4.25;69.05;97964.48;234276;1196;138645;-64
2023/01/19 16:33:24;;;;;;;26.40;17.70;;;;;;;4.50;69.52;97968.91;234357;1195;138909;-66
2023/01/19 16:39:56;;;;;;;;;;;;;;;;;;;;;
2023/01/19 16:46:40;;;;;;;;;;;;;;;;;;;;;
2023/01/19 16:52:52;;;;;;;21.20;15.00;;;;;;;4.10;68.73;97976.70;234495;1195;139196;-65
2023/01/19 17:05:21;;;;;;;20.30;14.40;;;;;;;3.94;69.20;97976.48;234020;1196;139289;-65
2023/01/19 17:31:34;;;;;;;26.80;16.80;;;;;;;4.12;69.27;97982.23;234248;1198;138929;-64
2023/01/19 17:52:21;;;;;;;26.80;18.70;;;;;;;4.10;69.55;98013.05;233485;1203;141036;-63
2023/01/19 17:58:25;;;;;;;;;;;;;;;;;;;;;
2023/01/19 18:10:57;;;;;;;25.10;17.10;;;;;;;4.03;69.34;98017.76;232339;1212;635768;-63
2023/01/19 18:17:31;;;;;;;27.30;16.40;;;;;;;4.09;69.42;98017.64;234278;1202;139254;-63
2023/01/19 18:23:31;;;;;;;26.30;16.90;;;;;;;4.11;69.16;98021.60;234264;1196;138727;-64
2023/01/19 18:29:35;;;;;;;;;;;;;;;;;;;;;
2023/01/19 18:50:05;;;;;;;27.90;18.80;;;;;;;4.00;68.80;98027.55;233327;1202;138796;-65
2023/01/19 18:56:06;;;;;;;;;;;;;;;;;;;;;
2023/01/19 19:08:45;;;;;;;26.50;17.30;;;;;;;3.86;68.95;98022.66;234651;1198;140331;-65
2023/01/19 20:07:01;;;;;;;;;;;;;;;;;;;;;
2023/01/19 20:13:14;;;;;;;31.40;20.20;;;;;;;4.62;67.68;98149.22;233652;1199;139537;-66
2023/01/19 20:19:06;;;;;;;;;;;;;;;;;;;;;
2023/01/19 20:26:42;;;;;;;33.30;21.90;;;;;;;4.51;68.05;98177.35;232293;1214;635187;-67
2023/01/19 20:32:50;;;;;;;33.80;21.70;;;;;;;4.37;68.13;98184.21;234436;1195;138589;-68
2023/01/19 20:39:06;;;;;;;;;;;;;;;;;;;;;
2023/01/19 20:44:51;;;;;;;33.90;21.70;;;;;;;4.07;68.78;98199.05;234630;1193;138984;-69
2023/01/19 20:50:41;;;;;;;;;;;;;;;;;;;;;
2023/01/19 20:57:05;;;;;;;33.30;21.70;;;;;;;3.95;69.22;98202.82;234661;1193;138463;-67
2023/01/19 21:03:09;;;;;;;32.10;21.10;;;;;;;3.87;69.52;98207.25;234670;1193;139745;-66
2023/01/19 21:08:56;;;;;;;31.40;21.80;;;;;;;3.93;69.65;98213.97;234621;1193;140273;-68
2023/01/19 21:14:25;;;;;;;31.80;21.70;;;;;;;4.04;69.55;98210.80;234642;1196;140665;-68
2023/01/19 21:20:24;;;;;;;33.90;22.90;;;;;;;4.06;69.04;98208.98;234688;1198;139599;-68
2023/01/19 21:26:32;;;;;;;54.30;33.80;;;;;;;3.98;69.25;98199.83;234649;1193;138770;-69
2023/01/19 21:32:04;;;;;;;33.70;21.90;;;;;;;3.96;69.64;98203.42;235044;1192;139358;-67
2023/01/19 21:37:59;;;;;;;;;;;;;;;;;;;;;
2023/01/19 21:44:16;;;;;;;35.30;23.20;;;;;;;3.87;69.85;98236.73;235003;1195;140150;-67
2023/01/19 21:50:06;;;;;;;33.80;23.10;;;;;;;3.86;69.49;98251.52;234896;1193;139338;-67
2023/01/19 21:56:31;;;;;;;35.80;23.30;;;;;;;3.79;69.99;98262.02;234954;1193;138965;-68
2023/01/19 22:02:38;;;;;;;36.80;23.70;;;;;;;3.85;69.76;98277.33;234946;1193;140562;-67
2023/01/19 22:15:08;;;;;;;35.00;23.40;;;;;;;3.95;69.95;98282.45;234809;1196;140132;-68
2023/01/19 22:21:17;;;;;;;;;;;;;;;;;;;;;
2023/01/19 22:27:32;;;;;;;;;;;;;;;;;;;;;
2023/01/19 22:33:45;;;;;;;35.50;23.80;;;;;;;3.87;69.66;98300.58;233978;1196;139061;-70
2023/01/19 23:14:14;;;;;;;38.10;24.40;;;;;;;3.84;70.16;98335.83;234609;1199;139741;-67
2023/01/19 23:28:17;;;;;;;38.20;24.10;;;;;;;3.81;69.94;98358.60;234277;1195;140486;-65
2023/01/19 23:34:06;;;;;;;35.50;23.50;;;;;;;3.79;70.07;98355.66;234489;1196;140369;-65
2023/01/19 23:47:42;;;;;;;;;;;;;;;;;;;;;
